sensor_id;sensor_type;location;lat;lon;timestamp;P1;durP1;ratioP1;P2;durP2;ratioP2
57858;SDS011;49153;45.568;11.894;2023-02-13T00:02:51;80.00;;;38.08;;
57858;SDS011;49153;45.568;11.894;2023-02-13T00:06:22;83.35;;;37.90;;
57858;SDS011;49153;45.568;11.894;2023-02-13T00:09:47;100.40;;;45.45;;
57858;SDS011;49153;45.568;11.894;2023-02-13T00:12:39;114.38;;;52.13;;
57858;SDS011;49153;45.568;11.894;2023-02-13T00:19:38;99.97;;;46.03;;
57858;SDS011;49153;45.568;11.894;2023-02-13T00:22:35;99.93;;;45.70;;
57858;SDS011;49153;45.568;11.894;2023-02-13T00:25:29;89.00;;;42.42;;
57858;SDS011;49153;45.568;11.894;2023-02-13T00:28:41;81.80;;;38.28;;
57858;SDS011;49153;45.568;11.894;2023-02-13T00:35:17;89.90;;;41.00;;
57858;SDS011;49153;45.568;11.894;2023-02-13T00:40:57;76.50;;;37.72;;
57858;SDS011;49153;45.568;11.894;2023-02-13T00:44:03;83.97;;;39.28;;
57858;SDS011;49153;45.568;11.894;2023-02-13T00:47:09;78.35;;;38.85;;
57858;SDS011;49153;45.568;11.894;2023-02-13T00:50:18;77.63;;;37.25;;
57858;SDS011;49153;45.568;11.894;2023-02-13T00:53:11;76.60;;;36.38;;
57858;SDS011;49153;45.568;11.894;2023-02-13T00:56:22;86.25;;;38.08;;
57858;SDS011;49153;45.568;11.894;2023-02-13T00:59:26;74.85;;;34.25;;
57858;SDS011;49153;45.568;11.894;2023-02-13T01:02:25;74.70;;;36.35;;
57858;SDS011;49153;45.568;11.894;2023-02-13T01:05:38;75.90;;;35.10;;
57858;SDS011;49153;45.568;11.894;2023-02-13T01:08:47;69.68;;;32.55;;
57858;SDS011;49153;45.568;11.894;2023-02-13T01:12:16;72.75;;;34.40;;
57858;SDS011;49153;45.568;11.894;2023-02-13T01:15:32;74.05;;;35.25;;
57858;SDS011;49153;45.568;11.894;2023-02-13T01:18:02;74.07;;;34.67;;
57858;SDS011;49153;45.568;11.894;2023-02-13T01:21:06;66.25;;;32.08;;
57858;SDS011;49153;45.568;11.894;2023-02-13T01:24:18;70.13;;;32.28;;
57858;SDS011;49153;45.568;11.894;2023-02-13T01:27:39;72.80;;;33.00;;
57858;SDS011;49153;45.568;11.894;2023-02-13T01:30:39;63.38;;;30.23;;
57858;SDS011;49153;45.568;11.894;2023-02-13T01:33:43;66.63;;;31.45;;
57858;SDS011;49153;45.568;11.894;2023-02-13T01:36:59;73.85;;;33.47;;
57858;SDS011;49153;45.568;11.894;2023-02-13T01:40:25;67.03;;;31.77;;
57858;SDS011;49153;45.568;11.894;2023-02-13T01:43:44;68.20;;;32.45;;
57858;SDS011;49153;45.568;11.894;2023-02-13T01:49:39;65.30;;;27.77;;
57858;SDS011;49153;45.568;11.894;2023-02-13T01:52:28;61.08;;;28.63;;
57858;SDS011;49153;45.568;11.894;2023-02-13T01:55:42;69.10;;;32.00;;
57858;SDS011;49153;45.568;11.894;2023-02-13T01:58:24;65.55;;;30.73;;
57858;SDS011;49153;45.568;11.894;2023-02-13T02:01:23;60.88;;;29.83;;
57858;SDS011;49153;45.568;11.894;2023-02-13T02:07:22;63.25;;;29.75;;
57858;SDS011;49153;45.568;11.894;2023-02-13T02:10:48;64.93;;;30.42;;
57858;SDS011;49153;45.568;11.894;2023-02-13T02:13:21;65.35;;;31.63;;
57858;SDS011;49153;45.568;11.894;2023-02-13T02:16:09;64.60;;;31.00;;
57858;SDS011;49153;45.568;11.894;2023-02-13T02:19:04;64.22;;;30.45;;
57858;SDS011;49153;45.568;11.894;2023-02-13T02:22:24;62.55;;;29.83;;
57858;SDS011;49153;45.568;11.894;2023-02-13T02:41:47;51.35;;;24.02;;
57858;SDS011;49153;45.568;11.894;2023-02-13T02:47:58;52.40;;;24.90;;
57858;SDS011;49153;45.568;11.894;2023-02-13T02:54:36;48.88;;;23.02;;
57858;SDS011;49153;45.568;11.894;2023-02-13T02:57:42;53.92;;;25.40;;
57858;SDS011;49153;45.568;11.894;2023-02-13T03:01:15;50.30;;;24.10;;
57858;SDS011;49153;45.568;11.894;2023-02-13T03:04:47;52.00;;;24.58;;
57858;SDS011;49153;45.568;11.894;2023-02-13T03:07:32;52.45;;;23.35;;
57858;SDS011;49153;45.568;11.894;2023-02-13T03:14:14;49.05;;;23.10;;
57858;SDS011;49153;45.568;11.894;2023-02-13T03:17:38;52.80;;;22.58;;
57858;SDS011;49153;45.568;11.894;2023-02-13T03:20:57;46.17;;;22.13;;
57858;SDS011;49153;45.568;11.894;2023-02-13T03:34:00;45.92;;;21.85;;
57858;SDS011;49153;45.568;11.894;2023-02-13T03:37:26;47.58;;;20.60;;
57858;SDS011;49153;45.568;11.894;2023-02-13T03:40:55;45.70;;;22.30;;
57858;SDS011;49153;45.568;11.894;2023-02-13T03:44:30;40.92;;;20.30;;
57858;SDS011;49153;45.568;11.894;2023-02-13T03:47:54;45.78;;;21.00;;
57858;SDS011;49153;45.568;11.894;2023-02-13T03:53:26;43.66;;;21.20;;
57858;SDS011;49153;45.568;11.894;2023-02-13T03:56:50;43.50;;;19.88;;
57858;SDS011;49153;45.568;11.894;2023-02-13T03:59:47;36.63;;;17.38;;
57858;SDS011;49153;45.568;11.894;2023-02-13T04:02:28;38.55;;;19.67;;
57858;SDS011;49153;45.568;11.894;2023-02-13T04:06:11;40.00;;;18.38;;
57858;SDS011;49153;45.568;11.894;2023-02-13T04:09:36;41.17;;;19.42;;
57858;SDS011;49153;45.568;11.894;2023-02-13T04:12:39;37.45;;;19.92;;
57858;SDS011;49153;45.568;11.894;2023-02-13T04:18:34;36.13;;;17.98;;
57858;SDS011;49153;45.568;11.894;2023-02-13T04:21:34;37.88;;;18.17;;
57858;SDS011;49153;45.568;11.894;2023-02-13T04:28:19;46.33;;;20.85;;
57858;SDS011;49153;45.568;11.894;2023-02-13T04:31:01;49.10;;;22.05;;
57858;SDS011;49153;45.568;11.894;2023-02-13T04:34:35;46.20;;;20.33;;
57858;SDS011;49153;45.568;11.894;2023-02-13T04:37:36;47.33;;;21.88;;
57858;SDS011;49153;45.568;11.894;2023-02-13T04:40:34;51.30;;;22.73;;
57858;SDS011;49153;45.568;11.894;2023-02-13T04:43:23;51.10;;;22.60;;
57858;SDS011;49153;45.568;11.894;2023-02-13T04:46:09;42.03;;;20.58;;
57858;SDS011;49153;45.568;11.894;2023-02-13T04:49:16;48.58;;;21.38;;
57858;SDS011;49153;45.568;11.894;2023-02-13T04:51:44;55.08;;;25.58;;
57858;SDS011;49153;45.568;11.894;2023-02-13T04:54:46;39.10;;;19.38;;
57858;SDS011;49153;45.568;11.894;2023-02-13T04:57:58;47.42;;;22.70;;
57858;SDS011;49153;45.568;11.894;2023-02-13T05:00:43;43.75;;;20.88;;
57858;SDS011;49153;45.568;11.894;2023-02-13T05:03:43;49.20;;;23.17;;
57858;SDS011;49153;45.568;11.894;2023-02-13T05:07:08;43.70;;;20.15;;
57858;SDS011;49153;45.568;11.894;2023-02-13T05:10:22;42.85;;;19.20;;
57858;SDS011;49153;45.568;11.894;2023-02-13T05:13:30;38.75;;;18.15;;
57858;SDS011;49153;45.568;11.894;2023-02-13T05:16:38;33.85;;;16.13;;
57858;SDS011;49153;45.568;11.894;2023-02-13T05:19:31;42.97;;;18.08;;
57858;SDS011;49153;45.568;11.894;2023-02-13T05:22:45;36.17;;;17.48;;
57858;SDS011;49153;45.568;11.894;2023-02-13T05:25:45;37.58;;;17.85;;
57858;SDS011;49153;45.568;11.894;2023-02-13T05:28:42;41.13;;;18.95;;
57858;SDS011;49153;45.568;11.894;2023-02-13T05:31:24;40.55;;;17.98;;
57858;SDS011;49153;45.568;11.894;2023-02-13T05:34:35;36.10;;;17.90;;
57858;SDS011;49153;45.568;11.894;2023-02-13T05:37:42;33.55;;;16.95;;
57858;SDS011;49153;45.568;11.894;2023-02-13T05:41:02;40.88;;;19.25;;
57858;SDS011;49153;45.568;11.894;2023-02-13T05:43:49;41.20;;;19.13;;
57858;SDS011;49153;45.568;11.894;2023-02-13T05:46:40;39.80;;;18.92;;
57858;SDS011;49153;45.568;11.894;2023-02-13T05:49:30;41.75;;;19.77;;
57858;SDS011;49153;45.568;11.894;2023-02-13T05:52:07;41.35;;;19.33;;
57858;SDS011;49153;45.568;11.894;2023-02-13T05:55:27;42.80;;;19.30;;
57858;SDS011;49153;45.568;11.894;2023-02-13T05:58:35;43.10;;;20.27;;
57858;SDS011;49153;45.568;11.894;2023-02-13T06:01:21;42.55;;;20.42;;
57858;SDS011;49153;45.568;11.894;2023-02-13T06:04:16;45.85;;;21.90;;
57858;SDS011;49153;45.568;11.894;2023-02-13T06:07:17;44.05;;;21.58;;
57858;SDS011;49153;45.568;11.894;2023-02-13T06:10:22;48.20;;;20.42;;
57858;SDS011;49153;45.568;11.894;2023-02-13T06:13:49;45.70;;;20.55;;
57858;SDS011;49153;45.568;11.894;2023-02-13T06:16:42;48.03;;;22.17;;
57858;SDS011;49153;45.568;11.894;2023-02-13T06:19:45;43.65;;;21.02;;
57858;SDS011;49153;45.568;11.894;2023-02-13T06:22:22;50.88;;;23.63;;
57858;SDS011;49153;45.568;11.894;2023-02-13T06:25:46;52.72;;;23.95;;
57858;SDS011;49153;45.568;11.894;2023-02-13T06:31:52;49.72;;;23.13;;
57858;SDS011;49153;45.568;11.894;2023-02-13T06:34:34;48.83;;;22.23;;
57858;SDS011;49153;45.568;11.894;2023-02-13T06:37:22;45.53;;;21.73;;
57858;SDS011;49153;45.568;11.894;2023-02-13T06:40:21;48.95;;;23.52;;
57858;SDS011;49153;45.568;11.894;2023-02-13T06:43:19;43.50;;;21.42;;
57858;SDS011;49153;45.568;11.894;2023-02-13T06:46:12;44.08;;;20.70;;
57858;SDS011;49153;45.568;11.894;2023-02-13T06:49:48;51.17;;;21.65;;
57858;SDS011;49153;45.568;11.894;2023-02-13T06:53:05;47.15;;;21.02;;
57858;SDS011;49153;45.568;11.894;2023-02-13T06:56:22;44.80;;;20.83;;
57858;SDS011;49153;45.568;11.894;2023-02-13T06:59:34;44.72;;;20.50;;
57858;SDS011;49153;45.568;11.894;2023-02-13T07:02:40;40.83;;;19.83;;
57858;SDS011;49153;45.568;11.894;2023-02-13T07:05:25;51.92;;;22.02;;
57858;SDS011;49153;45.568;11.894;2023-02-13T07:08:14;45.47;;;21.40;;
57858;SDS011;49153;45.568;11.894;2023-02-13T07:11:15;46.67;;;21.88;;
57858;SDS011;49153;45.568;11.894;2023-02-13T07:13:54;41.42;;;20.77;;
57858;SDS011;49153;45.568;11.894;2023-02-13T07:17:21;46.42;;;20.05;;
57858;SDS011;49153;45.568;11.894;2023-02-13T07:20:30;43.67;;;20.23;;
57858;SDS011;49153;45.568;11.894;2023-02-13T07:23:36;42.33;;;21.02;;
57858;SDS011;49153;45.568;11.894;2023-02-13T07:26:50;36.10;;;16.33;;
57858;SDS011;49153;45.568;11.894;2023-02-13T07:29:44;36.75;;;18.75;;
57858;SDS011;49153;45.568;11.894;2023-02-13T07:32:17;43.47;;;19.52;;
57858;SDS011;49153;45.568;11.894;2023-02-13T07:37:32;44.60;;;20.22;;
57858;SDS011;49153;45.568;11.894;2023-02-13T07:40:21;44.03;;;21.92;;
57858;SDS011;49153;45.568;11.894;2023-02-13T07:43:26;38.83;;;18.60;;
57858;SDS011;49153;45.568;11.894;2023-02-13T07:46:50;38.83;;;18.63;;
57858;SDS011;49153;45.568;11.894;2023-02-13T07:50:21;37.50;;;18.08;;
57858;SDS011;49153;45.568;11.894;2023-02-13T07:57:33;39.13;;;17.95;;
57858;SDS011;49153;45.568;11.894;2023-02-13T08:00:29;37.55;;;17.23;;
57858;SDS011;49153;45.568;11.894;2023-02-13T08:03:55;33.50;;;17.23;;
57858;SDS011;49153;45.568;11.894;2023-02-13T08:06:32;38.33;;;17.48;;
57858;SDS011;49153;45.568;11.894;2023-02-13T08:09:24;33.83;;;16.10;;
57858;SDS011;49153;45.568;11.894;2023-02-13T08:14:40;30.02;;;16.65;;
57858;SDS011;49153;45.568;11.894;2023-02-13T08:17:28;33.10;;;16.58;;
57858;SDS011;49153;45.568;11.894;2023-02-13T08:20:23;38.38;;;18.70;;
57858;SDS011;49153;45.568;11.894;2023-02-13T08:23:44;35.67;;;18.13;;
57858;SDS011;49153;45.568;11.894;2023-02-13T08:32:31;45.53;;;22.30;;
57858;SDS011;49153;45.568;11.894;2023-02-13T08:35:44;40.83;;;20.30;;
57858;SDS011;49153;45.568;11.894;2023-02-13T08:38:28;43.08;;;21.50;;
57858;SDS011;49153;45.568;11.894;2023-02-13T08:41:28;35.72;;;18.70;;
57858;SDS011;49153;45.568;11.894;2023-02-13T08:44:21;39.13;;;20.33;;
57858;SDS011;49153;45.568;11.894;2023-02-13T08:47:34;49.90;;;22.58;;
57858;SDS011;49153;45.568;11.894;2023-02-13T08:52:17;42.67;;;21.85;;
57858;SDS011;49153;45.568;11.894;2023-02-13T08:55:38;43.15;;;21.35;;
57858;SDS011;49153;45.568;11.894;2023-02-13T08:58:04;39.55;;;21.58;;
57858;SDS011;49153;45.568;11.894;2023-02-13T09:00:29;40.45;;;20.50;;
57858;SDS011;49153;45.568;11.894;2023-02-13T09:02:59;38.95;;;20.33;;
57858;SDS011;49153;45.568;11.894;2023-02-13T09:05:28;45.60;;;22.35;;
57858;SDS011;49153;45.568;11.894;2023-02-13T09:07:55;43.30;;;22.23;;
57858;SDS011;49153;45.568;11.894;2023-02-13T09:10:24;36.13;;;20.00;;
57858;SDS011;49153;45.568;11.894;2023-02-13T09:12:52;38.17;;;20.70;;
57858;SDS011;49153;45.568;11.894;2023-02-13T09:15:18;37.20;;;20.85;;
57858;SDS011;49153;45.568;11.894;2023-02-13T09:17:43;33.47;;;19.13;;
57858;SDS011;49153;45.568;11.894;2023-02-13T09:20:09;38.40;;;21.40;;
57858;SDS011;49153;45.568;11.894;2023-02-13T09:22:37;37.47;;;20.23;;
57858;SDS011;49153;45.568;11.894;2023-02-13T09:25:06;41.28;;;20.58;;
57858;SDS011;49153;45.568;11.894;2023-02-13T09:27:33;35.00;;;20.33;;
57858;SDS011;49153;45.568;11.894;2023-02-13T09:29:59;34.50;;;19.55;;
57858;SDS011;49153;45.568;11.894;2023-02-13T09:32:25;32.22;;;18.20;;
57858;SDS011;49153;45.568;11.894;2023-02-13T09:34:51;29.55;;;16.70;;
57858;SDS011;49153;45.568;11.894;2023-02-13T09:37:17;22.55;;;13.90;;
57858;SDS011;49153;45.568;11.894;2023-02-13T09:39:42;26.83;;;14.40;;
57858;SDS011;49153;45.568;11.894;2023-02-13T09:42:18;20.05;;;11.88;;
57858;SDS011;49153;45.568;11.894;2023-02-13T09:44:49;23.40;;;14.57;;
57858;SDS011;49153;45.568;11.894;2023-02-13T09:52:49;20.08;;;11.85;;
57858;SDS011;49153;45.568;11.894;2023-02-13T10:01:30;12.93;;;7.70;;
57858;SDS011;49153;45.568;11.894;2023-02-13T10:04:15;13.43;;;7.57;;
57858;SDS011;49153;45.568;11.894;2023-02-13T10:06:46;12.85;;;8.15;;
57858;SDS011;49153;45.568;11.894;2023-02-13T10:09:32;12.90;;;6.63;;
57858;SDS011;49153;45.568;11.894;2023-02-13T10:17:35;15.38;;;8.07;;
57858;SDS011;49153;45.568;11.894;2023-02-13T10:23:20;13.90;;;8.65;;
57858;SDS011;49153;45.568;11.894;2023-02-13T10:25:55;13.15;;;8.88;;
57858;SDS011;49153;45.568;11.894;2023-02-13T10:28:37;12.73;;;7.93;;
57858;SDS011;49153;45.568;11.894;2023-02-13T10:31:49;14.00;;;8.70;;
57858;SDS011;49153;45.568;11.894;2023-02-13T10:34:19;14.68;;;8.50;;
57858;SDS011;49153;45.568;11.894;2023-02-13T10:36:46;12.02;;;8.20;;
57858;SDS011;49153;45.568;11.894;2023-02-13T10:39:25;12.68;;;8.20;;
57858;SDS011;49153;45.568;11.894;2023-02-13T10:41:53;16.73;;;10.15;;
57858;SDS011;49153;45.568;11.894;2023-02-13T10:47:01;23.83;;;13.02;;
57858;SDS011;49153;45.568;11.894;2023-02-13T11:03:23;25.90;;;13.98;;
57858;SDS011;49153;45.568;11.894;2023-02-13T11:05:52;24.42;;;14.43;;
57858;SDS011;49153;45.568;11.894;2023-02-13T11:08:25;28.05;;;16.05;;
57858;SDS011;49153;45.568;11.894;2023-02-13T11:10:55;25.15;;;14.93;;
57858;SDS011;49153;45.568;11.894;2023-02-13T11:13:22;25.92;;;15.45;;
57858;SDS011;49153;45.568;11.894;2023-02-13T11:16:05;20.48;;;12.98;;
57858;SDS011;49153;45.568;11.894;2023-02-13T11:18:37;15.98;;;10.27;;
57858;SDS011;49153;45.568;11.894;2023-02-13T11:21:07;18.02;;;10.20;;
57858;SDS011;49153;45.568;11.894;2023-02-13T11:23:36;16.50;;;10.43;;
57858;SDS011;49153;45.568;11.894;2023-02-13T11:31:39;16.70;;;10.43;;
57858;SDS011;49153;45.568;11.894;2023-02-13T11:34:23;14.95;;;9.68;;
57858;SDS011;49153;45.568;11.894;2023-02-13T11:36:51;13.68;;;9.07;;
57858;SDS011;49153;45.568;11.894;2023-02-13T11:39:19;13.93;;;8.98;;
57858;SDS011;49153;45.568;11.894;2023-02-13T11:41:50;13.88;;;9.10;;
57858;SDS011;49153;45.568;11.894;2023-02-13T11:44:26;13.48;;;8.98;;
57858;SDS011;49153;45.568;11.894;2023-02-13T11:46:54;14.35;;;9.10;;
57858;SDS011;49153;45.568;11.894;2023-02-13T11:49:23;13.13;;;8.25;;
57858;SDS011;49153;45.568;11.894;2023-02-13T11:51:51;11.82;;;8.68;;
57858;SDS011;49153;45.568;11.894;2023-02-13T11:59:49;12.80;;;8.50;;
57858;SDS011;49153;45.568;11.894;2023-02-13T12:02:20;15.73;;;10.07;;
57858;SDS011;49153;45.568;11.894;2023-02-13T12:04:51;14.20;;;9.52;;
57858;SDS011;49153;45.568;11.894;2023-02-13T12:07:46;13.98;;;9.25;;
57858;SDS011;49153;45.568;11.894;2023-02-13T12:13:01;12.38;;;8.50;;
57858;SDS011;49153;45.568;11.894;2023-02-13T12:15:38;13.93;;;9.00;;
57858;SDS011;49153;45.568;11.894;2023-02-13T12:20:40;12.43;;;7.90;;
57858;SDS011;49153;45.568;11.894;2023-02-13T12:28:22;13.00;;;7.47;;
57858;SDS011;49153;45.568;11.894;2023-02-13T12:39:34;10.75;;;7.07;;
57858;SDS011;49153;45.568;11.894;2023-02-13T12:47:46;9.48;;;6.68;;
57858;SDS011;49153;45.568;11.894;2023-02-13T12:50:27;10.63;;;6.90;;
57858;SDS011;49153;45.568;11.894;2023-02-13T12:58:53;12.90;;;8.50;;
57858;SDS011;49153;45.568;11.894;2023-02-13T13:04:33;13.15;;;8.63;;
57858;SDS011;49153;45.568;11.894;2023-02-13T13:18:07;11.55;;;6.93;;
57858;SDS011;49153;45.568;11.894;2023-02-13T13:26:49;12.13;;;7.28;;
57858;SDS011;49153;45.568;11.894;2023-02-13T13:29:19;9.80;;;6.75;;
57858;SDS011;49153;45.568;11.894;2023-02-13T13:32:07;11.13;;;7.10;;
57858;SDS011;49153;45.568;11.894;2023-02-13T13:34:35;10.32;;;6.40;;
57858;SDS011;49153;45.568;11.894;2023-02-13T13:37:08;10.23;;;7.20;;
57858;SDS011;49153;45.568;11.894;2023-02-13T13:39:51;9.82;;;6.53;;
57858;SDS011;49153;45.568;11.894;2023-02-13T13:42:35;11.52;;;7.63;;
57858;SDS011;49153;45.568;11.894;2023-02-13T13:45:08;14.23;;;7.70;;
57858;SDS011;49153;45.568;11.894;2023-02-13T13:50:35;9.90;;;6.10;;
57858;SDS011;49153;45.568;11.894;2023-02-13T13:58:22;12.77;;;7.63;;
57858;SDS011;49153;45.568;11.894;2023-02-13T14:03:50;13.00;;;7.47;;
57858;SDS011;49153;45.568;11.894;2023-02-13T14:06:18;13.75;;;7.78;;
57858;SDS011;49153;45.568;11.894;2023-02-13T14:08:59;14.38;;;9.25;;
57858;SDS011;49153;45.568;11.894;2023-02-13T14:11:31;14.20;;;7.97;;
57858;SDS011;49153;45.568;11.894;2023-02-13T14:14:42;11.40;;;7.55;;
57858;SDS011;49153;45.568;11.894;2023-02-13T14:16:52;15.60;;;9.05;;
57858;SDS011;49153;45.568;11.894;2023-02-13T14:21:53;10.88;;;7.53;;
57858;SDS011;49153;45.568;11.894;2023-02-13T14:24:39;12.45;;;8.27;;
57858;SDS011;49153;45.568;11.894;2023-02-13T14:27:14;14.77;;;9.57;;
57858;SDS011;49153;45.568;11.894;2023-02-13T14:29:46;15.80;;;10.63;;
57858;SDS011;49153;45.568;11.894;2023-02-13T14:32:20;13.38;;;9.57;;
57858;SDS011;49153;45.568;11.894;2023-02-13T14:34:53;14.50;;;8.65;;
57858;SDS011;49153;45.568;11.894;2023-02-13T14:37:30;15.63;;;9.50;;
57858;SDS011;49153;45.568;11.894;2023-02-13T14:42:39;14.77;;;9.52;;
57858;SDS011;49153;45.568;11.894;2023-02-13T14:45:16;14.02;;;9.00;;
57858;SDS011;49153;45.568;11.894;2023-02-13T14:47:46;13.65;;;8.88;;
57858;SDS011;49153;45.568;11.894;2023-02-13T14:53:19;15.32;;;10.70;;
57858;SDS011;49153;45.568;11.894;2023-02-13T14:55:45;14.52;;;9.68;;
57858;SDS011;49153;45.568;11.894;2023-02-13T14:58:29;15.30;;;9.73;;
57858;SDS011;49153;45.568;11.894;2023-02-13T15:03:59;14.77;;;9.60;;
57858;SDS011;49153;45.568;11.894;2023-02-13T15:06:43;15.45;;;9.38;;
57858;SDS011;49153;45.568;11.894;2023-02-13T15:09:27;16.60;;;10.32;;
57858;SDS011;49153;45.568;11.894;2023-02-13T15:11:56;14.43;;;9.35;;
57858;SDS011;49153;45.568;11.894;2023-02-13T15:14:35;15.13;;;9.63;;
57858;SDS011;49153;45.568;11.894;2023-02-13T15:17:12;16.73;;;10.30;;
57858;SDS011;49153;45.568;11.894;2023-02-13T15:19:52;17.05;;;10.85;;
57858;SDS011;49153;45.568;11.894;2023-02-13T15:25:01;18.35;;;11.23;;
57858;SDS011;49153;45.568;11.894;2023-02-13T15:27:28;18.13;;;11.52;;
57858;SDS011;49153;45.568;11.894;2023-02-13T15:30:03;17.73;;;10.77;;
57858;SDS011;49153;45.568;11.894;2023-02-13T15:32:44;16.58;;;10.32;;
57858;SDS011;49153;45.568;11.894;2023-02-13T15:35:22;15.35;;;10.02;;
57858;SDS011;49153;45.568;11.894;2023-02-13T15:37:53;15.70;;;10.18;;
57858;SDS011;49153;45.568;11.894;2023-02-13T15:40:23;15.70;;;10.00;;
57858;SDS011;49153;45.568;11.894;2023-02-13T15:42:54;16.95;;;10.85;;
57858;SDS011;49153;45.568;11.894;2023-02-13T15:45:20;17.33;;;10.98;;
57858;SDS011;49153;45.568;11.894;2023-02-13T15:47:48;18.27;;;11.23;;
57858;SDS011;49153;45.568;11.894;2023-02-13T15:50:15;17.92;;;11.70;;
57858;SDS011;49153;45.568;11.894;2023-02-13T15:52:43;19.42;;;12.70;;
57858;SDS011;49153;45.568;11.894;2023-02-13T15:55:17;19.40;;;12.27;;
57858;SDS011;49153;45.568;11.894;2023-02-13T15:57:46;17.30;;;12.20;;
57858;SDS011;49153;45.568;11.894;2023-02-13T16:00:17;21.38;;;13.70;;
57858;SDS011;49153;45.568;11.894;2023-02-13T16:02:47;21.13;;;13.40;;
57858;SDS011;49153;45.568;11.894;2023-02-13T16:05:13;19.23;;;13.00;;
57858;SDS011;49153;45.568;11.894;2023-02-13T16:07:51;20.75;;;14.30;;
57858;SDS011;49153;45.568;11.894;2023-02-13T16:10:26;19.95;;;13.55;;
57858;SDS011;49153;45.568;11.894;2023-02-13T16:12:53;20.42;;;13.30;;
57858;SDS011;49153;45.568;11.894;2023-02-13T16:15:21;23.05;;;14.10;;
57858;SDS011;49153;45.568;11.894;2023-02-13T16:17:51;23.27;;;14.50;;
57858;SDS011;49153;45.568;11.894;2023-02-13T16:20:21;23.83;;;14.63;;
57858;SDS011;49153;45.568;11.894;2023-02-13T16:22:50;22.75;;;13.98;;
57858;SDS011;49153;45.568;11.894;2023-02-13T16:25:22;21.35;;;14.07;;
57858;SDS011;49153;45.568;11.894;2023-02-13T16:30:26;21.42;;;13.43;;
57858;SDS011;49153;45.568;11.894;2023-02-13T16:35:41;22.88;;;13.90;;
57858;SDS011;49153;45.568;11.894;2023-02-13T16:43:47;28.10;;;15.32;;
57858;SDS011;49153;45.568;11.894;2023-02-13T16:51:28;25.60;;;14.93;;
57858;SDS011;49153;45.568;11.894;2023-02-13T16:53:58;24.48;;;14.18;;
57858;SDS011;49153;45.568;11.894;2023-02-13T16:59:12;26.05;;;14.20;;
57858;SDS011;49153;45.568;11.894;2023-02-13T17:01:45;26.95;;;15.35;;
57858;SDS011;49153;45.568;11.894;2023-02-13T17:04:21;30.50;;;15.73;;
57858;SDS011;49153;45.568;11.894;2023-02-13T17:06:47;26.80;;;14.98;;
57858;SDS011;49153;45.568;11.894;2023-02-13T17:09:18;24.50;;;15.50;;
57858;SDS011;49153;45.568;11.894;2023-02-13T17:11:44;25.98;;;13.82;;
57858;SDS011;49153;45.568;11.894;2023-02-13T17:14:14;23.13;;;14.27;;
57858;SDS011;49153;45.568;11.894;2023-02-13T17:16:39;25.15;;;14.65;;
57858;SDS011;49153;45.568;11.894;2023-02-13T17:19:05;26.30;;;15.95;;
57858;SDS011;49153;45.568;11.894;2023-02-13T17:21:31;27.38;;;15.60;;
57858;SDS011;49153;45.568;11.894;2023-02-13T17:23:56;30.88;;;17.10;;
57858;SDS011;49153;45.568;11.894;2023-02-13T17:26:22;28.42;;;16.42;;
57858;SDS011;49153;45.568;11.894;2023-02-13T17:28:47;27.38;;;15.13;;
57858;SDS011;49153;45.568;11.894;2023-02-13T17:31:13;26.65;;;16.30;;
57858;SDS011;49153;45.568;11.894;2023-02-13T17:33:38;26.90;;;16.17;;
57858;SDS011;49153;45.568;11.894;2023-02-13T17:36:05;27.63;;;15.52;;
57858;SDS011;49153;45.568;11.894;2023-02-13T17:38:31;25.70;;;15.43;;
57858;SDS011;49153;45.568;11.894;2023-02-13T17:40:57;31.13;;;17.42;;
57858;SDS011;49153;45.568;11.894;2023-02-13T17:43:22;33.42;;;19.38;;
57858;SDS011;49153;45.568;11.894;2023-02-13T17:45:49;33.42;;;17.88;;
57858;SDS011;49153;45.568;11.894;2023-02-13T17:48:15;31.60;;;16.88;;
57858;SDS011;49153;45.568;11.894;2023-02-13T17:50:40;34.22;;;17.52;;
57858;SDS011;49153;45.568;11.894;2023-02-13T17:53:07;28.45;;;16.13;;
57858;SDS011;49153;45.568;11.894;2023-02-13T17:55:40;28.13;;;16.45;;
57858;SDS011;49153;45.568;11.894;2023-02-13T17:58:06;26.80;;;15.55;;
57858;SDS011;49153;45.568;11.894;2023-02-13T18:00:31;26.50;;;14.93;;
57858;SDS011;49153;45.568;11.894;2023-02-13T18:02:58;25.63;;;15.02;;
57858;SDS011;49153;45.568;11.894;2023-02-13T18:05:25;25.20;;;14.77;;
57858;SDS011;49153;45.568;11.894;2023-02-13T18:07:51;26.88;;;15.68;;
57858;SDS011;49153;45.568;11.894;2023-02-13T18:10:18;28.48;;;15.98;;
57858;SDS011;49153;45.568;11.894;2023-02-13T18:12:46;28.02;;;15.88;;
57858;SDS011;49153;45.568;11.894;2023-02-13T18:15:13;30.52;;;16.83;;
57858;SDS011;49153;45.568;11.894;2023-02-13T18:17:39;29.55;;;17.38;;
57858;SDS011;49153;45.568;11.894;2023-02-13T18:20:05;30.70;;;18.10;;
57858;SDS011;49153;45.568;11.894;2023-02-13T18:22:32;34.45;;;18.98;;
57858;SDS011;49153;45.568;11.894;2023-02-13T18:24:59;31.13;;;18.20;;
57858;SDS011;49153;45.568;11.894;2023-02-13T18:27:25;35.25;;;20.02;;
57858;SDS011;49153;45.568;11.894;2023-02-13T18:29:51;37.22;;;20.27;;
57858;SDS011;49153;45.568;11.894;2023-02-13T18:32:16;38.58;;;19.75;;
57858;SDS011;49153;45.568;11.894;2023-02-13T18:34:41;30.92;;;18.65;;
57858;SDS011;49153;45.568;11.894;2023-02-13T18:37:07;31.42;;;18.52;;
57858;SDS011;49153;45.568;11.894;2023-02-13T18:39:33;30.05;;;18.85;;
57858;SDS011;49153;45.568;11.894;2023-02-13T18:42:05;29.90;;;18.05;;
57858;SDS011;49153;45.568;11.894;2023-02-13T18:44:31;31.25;;;18.63;;
57858;SDS011;49153;45.568;11.894;2023-02-13T18:46:57;31.48;;;18.45;;
57858;SDS011;49153;45.568;11.894;2023-02-13T18:49:23;32.90;;;19.90;;
57858;SDS011;49153;45.568;11.894;2023-02-13T18:51:49;32.10;;;18.70;;
57858;SDS011;49153;45.568;11.894;2023-02-13T18:54:14;32.95;;;20.23;;
57858;SDS011;49153;45.568;11.894;2023-02-13T18:56:41;31.40;;;19.25;;
57858;SDS011;49153;45.568;11.894;2023-02-13T18:59:08;33.90;;;20.20;;
57858;SDS011;49153;45.568;11.894;2023-02-13T19:01:33;35.58;;;21.05;;
57858;SDS011;49153;45.568;11.894;2023-02-13T19:03:59;37.20;;;21.30;;
57858;SDS011;49153;45.568;11.894;2023-02-13T19:06:26;39.42;;;21.27;;
57858;SDS011;49153;45.568;11.894;2023-02-13T19:08:52;43.45;;;22.63;;
57858;SDS011;49153;45.568;11.894;2023-02-13T19:11:19;38.25;;;22.15;;
57858;SDS011;49153;45.568;11.894;2023-02-13T19:13:48;42.10;;;22.92;;
57858;SDS011;49153;45.568;11.894;2023-02-13T19:16:18;41.20;;;23.70;;
57858;SDS011;49153;45.568;11.894;2023-02-13T19:18:47;49.42;;;25.80;;
57858;SDS011;49153;45.568;11.894;2023-02-13T19:21:19;40.33;;;23.08;;
57858;SDS011;49153;45.568;11.894;2023-02-13T19:23:45;41.30;;;23.52;;
57858;SDS011;49153;45.568;11.894;2023-02-13T19:26:13;48.25;;;25.05;;
57858;SDS011;49153;45.568;11.894;2023-02-13T19:28:40;43.85;;;24.13;;
57858;SDS011;49153;45.568;11.894;2023-02-13T19:31:09;42.17;;;23.98;;
57858;SDS011;49153;45.568;11.894;2023-02-13T19:33:37;42.65;;;23.42;;
57858;SDS011;49153;45.568;11.894;2023-02-13T19:36:05;48.95;;;25.48;;
57858;SDS011;49153;45.568;11.894;2023-02-13T19:38:33;50.13;;;25.83;;